Lusaka, Zambia
Current Conditions -  °F | °C
As of 11:00 PM on Tuesday 21 Oct 2014 (Local Time) from FLKK Reporting Station
Clear Clear  
Wind Chill: 70°   Ceiling: Unl
Heat Index: 70°   Visibility: 6mi
Dew Point: 45°   Wind: 3mph
Humidity: 40%   Direction: 140°SE
Pressure: 30.18"   Gusts: NA
Location:  15.42°S, 28.29°E
Report Text: FLKK 212100Z 14003KT CAVOK 21/07 Q1022
Loading
Personal Weather Stations






























Interactive Weather Map New forecast layout! Learn more

10-Day Weather Forecast

Advertisements
Track Severe Weather on mobile